createdAt,value
2019-02-21T00:02:38.004Z,18.93
2019-02-21T00:04:14.058Z,19.60
2019-02-21T00:05:50.297Z,20.67
2019-02-21T00:07:26.436Z,19.43
2019-02-21T00:09:02.795Z,19.47
2019-02-21T00:10:38.915Z,20.40
2019-02-21T00:12:14.938Z,19.87
2019-02-21T00:13:50.820Z,20.03
2019-02-21T00:15:26.778Z,20.10
2019-02-21T00:17:02.812Z,21.93
2019-02-21T00:18:40.241Z,21.87
2019-02-21T00:20:17.403Z,21.00
2019-02-21T00:21:53.490Z,22.37
2019-02-21T00:23:29.529Z,21.23
2019-02-21T00:25:05.638Z,19.90
2019-02-21T00:26:43.985Z,20.73
2019-02-21T00:28:21.921Z,21.83
2019-02-21T00:29:57.810Z,20.30
2019-02-21T00:31:35.101Z,20.00
2019-02-21T00:33:10.974Z,20.60
2019-02-21T00:34:46.927Z,20.20
2019-02-21T00:36:22.946Z,20.73
2019-02-21T00:37:58.910Z,22.70
2019-02-21T00:39:35.021Z,20.47
2019-02-21T00:41:11.068Z,20.50
2019-02-21T00:42:46.954Z,20.77
2019-02-21T00:44:22.829Z,21.27
2019-02-21T00:45:58.714Z,21.70
2019-02-21T00:47:34.625Z,20.63
2019-02-21T00:49:10.599Z,21.27
2019-02-21T00:50:46.640Z,20.03
2019-02-21T00:52:22.577Z,21.83
2019-02-21T00:53:58.637Z,22.73
2019-02-21T00:55:34.671Z,22.50
2019-02-21T00:57:10.727Z,19.57
2019-02-21T00:58:46.766Z,20.30
2019-02-21T01:00:22.717Z,21.27
2019-02-21T01:01:58.915Z,21.60
2019-02-21T01:03:34.989Z,20.90
2019-02-21T01:05:11.103Z,23.27
2019-02-21T01:06:47.173Z,22.43
2019-02-21T01:08:23.558Z,21.83
2019-02-21T01:09:59.582Z,19.43
2019-02-21T01:11:35.543Z,20.90
2019-02-21T01:13:11.516Z,22.00
2019-02-21T01:14:47.610Z,22.03
2019-02-21T01:16:23.752Z,22.17
2019-02-21T01:17:59.883Z,23.87
2019-02-21T01:19:35.842Z,23.60
2019-02-21T01:21:11.804Z,24.60
2019-02-21T01:22:47.836Z,24.83
2019-02-21T01:24:23.984Z,24.97
2019-02-21T01:25:59.955Z,23.80
2019-02-21T01:27:35.943Z,22.93
2019-02-21T01:29:11.906Z,23.67
2019-02-21T01:30:56.649Z,23.33
2019-02-21T01:32:25.699Z,24.00
2019-02-21T01:34:01.657Z,23.57
2019-02-21T01:35:37.612Z,22.03
2019-02-21T01:37:13.664Z,22.03
2019-02-21T01:38:49.800Z,22.30
2019-02-21T01:40:25.765Z,21.87
2019-02-21T01:42:01.678Z,22.00
2019-02-21T01:43:37.635Z,21.30
2019-02-21T01:45:13.694Z,21.47
2019-02-21T01:46:49.588Z,20.17
2019-02-21T01:48:25.617Z,19.27
2019-02-21T01:50:01.581Z,18.97
2019-02-21T01:51:37.697Z,18.30
2019-02-21T01:53:13.762Z,18.23
2019-02-21T01:54:49.662Z,19.33
2019-02-21T01:56:25.634Z,19.27
2019-02-21T01:58:01.521Z,19.60
2019-02-21T01:59:37.410Z,18.07
2019-02-21T02:01:13.326Z,18.73
2019-02-21T02:02:49.208Z,18.40
2019-02-21T02:04:25.247Z,18.60
2019-02-21T02:06:01.242Z,18.70
2019-02-21T02:07:37.266Z,19.07
2019-02-21T02:09:13.593Z,20.50
2019-02-21T02:10:49.693Z,20.50
2019-02-21T02:12:25.935Z,23.20
2019-02-21T02:14:02.000Z,25.80
2019-02-21T02:15:37.965Z,26.80
2019-02-21T02:17:14.146Z,23.07
2019-02-21T02:18:50.080Z,22.17
2019-02-21T02:20:26.146Z,19.20
2019-02-21T02:22:02.243Z,20.27
2019-02-21T02:23:38.416Z,22.57
2019-02-21T02:25:14.447Z,26.07
2019-02-21T02:26:50.587Z,26.53
2019-02-21T02:28:26.527Z,29.47
2019-02-21T02:30:02.556Z,30.93
2019-02-21T02:31:38.593Z,26.30
2019-02-21T02:33:14.488Z,24.13
2019-02-21T02:34:51.858Z,23.43
2019-02-21T02:36:27.973Z,23.60
2019-02-21T02:38:04.182Z,18.40
2019-02-21T02:39:40.247Z,20.93
2019-02-21T02:41:16.280Z,22.97
2019-02-21T02:42:52.418Z,23.93
2019-02-21T02:44:28.387Z,22.33
2019-02-21T02:46:04.535Z,20.43
2019-02-21T02:47:40.551Z,19.17
2019-02-21T02:49:16.510Z,19.50
2019-02-21T02:50:52.562Z,19.93
2019-02-21T02:52:28.607Z,19.13
2019-02-21T02:54:04.806Z,19.20
2019-02-21T02:55:42.243Z,22.53
2019-02-21T02:57:18.273Z,22.67
2019-02-21T02:58:54.325Z,19.73
2019-02-21T03:00:30.522Z,20.07
2019-02-21T03:02:06.660Z,20.43
2019-02-21T03:03:42.653Z,19.03
2019-02-21T03:05:18.691Z,21.23
2019-02-21T03:06:54.694Z,21.17
2019-02-21T03:08:30.726Z,20.40
2019-02-21T03:10:14.039Z,19.93
2019-02-21T03:11:51.870Z,21.40
2019-02-21T03:13:27.630Z,22.70
2019-02-21T03:15:03.592Z,23.50
2019-02-21T03:16:39.760Z,24.53
2019-02-21T03:18:15.749Z,22.03
2019-02-21T03:19:51.713Z,22.53
2019-02-21T03:21:27.750Z,22.40
2019-02-21T03:23:03.707Z,22.97
2019-02-21T03:24:39.699Z,24.00
2019-02-21T03:26:15.591Z,29.83
2019-02-21T03:27:51.968Z,29.87
2019-02-21T03:29:27.924Z,27.83
2019-02-21T03:31:03.973Z,26.73
2019-02-21T03:32:40.012Z,27.57
2019-02-21T03:34:16.143Z,26.23
2019-02-21T03:35:52.337Z,24.47
2019-02-21T03:37:28.245Z,25.17
2019-02-21T03:39:05.643Z,24.07
2019-02-21T03:40:41.618Z,25.40
2019-02-21T03:42:17.576Z,26.47
2019-02-21T03:43:53.475Z,23.90
2019-02-21T03:45:29.434Z,23.93
2019-02-21T03:47:05.541Z,27.47
2019-02-21T03:48:41.671Z,26.33
2019-02-21T03:50:17.804Z,26.20
2019-02-21T03:51:53.781Z,26.13
2019-02-21T03:53:29.828Z,26.40
2019-02-21T03:55:08.034Z,26.90
2019-02-21T03:56:44.103Z,30.33
2019-02-21T03:58:20.140Z,27.00
2019-02-21T03:59:56.249Z,28.03
2019-02-21T04:01:32.526Z,28.00
2019-02-21T04:03:08.489Z,24.97
2019-02-21T04:04:44.619Z,24.13
2019-02-21T04:06:20.925Z,23.10
2019-02-21T04:07:56.901Z,23.90
2019-02-21T04:09:32.826Z,24.77
2019-02-21T04:11:08.752Z,25.03
2019-02-21T04:12:44.813Z,26.90
2019-02-21T04:14:21.247Z,25.73
2019-02-21T04:15:57.476Z,26.47
2019-02-21T04:17:33.642Z,28.00
2019-02-21T04:19:09.537Z,26.90
2019-02-21T04:20:45.581Z,25.93
2019-02-21T04:22:21.745Z,27.00
2019-02-21T04:23:57.885Z,24.70
2019-02-21T04:25:34.019Z,24.87
2019-02-21T04:27:10.216Z,25.27
2019-02-21T04:28:46.191Z,25.90
2019-02-21T04:30:22.244Z,25.60
2019-02-21T04:31:58.308Z,26.17
2019-02-21T04:33:34.568Z,27.43
2019-02-21T04:35:10.735Z,26.93
2019-02-21T04:36:46.635Z,27.00
2019-02-21T04:38:22.443Z,26.83
2019-02-21T04:39:58.346Z,26.07
2019-02-21T04:41:34.326Z,26.60
2019-02-21T04:43:10.289Z,26.73
2019-02-21T04:44:46.323Z,27.20
2019-02-21T04:46:22.353Z,27.73
2019-02-21T04:47:58.343Z,27.13
2019-02-21T04:49:34.312Z,27.43
2019-02-21T04:51:10.418Z,26.93
2019-02-21T04:52:46.576Z,29.30
2019-02-21T04:54:22.546Z,28.03
2019-02-21T04:55:58.632Z,29.03
2019-02-21T04:57:34.530Z,28.70
2019-02-21T04:59:10.514Z,29.20
2019-02-21T05:00:46.460Z,28.57
2019-02-21T05:02:29.065Z,30.77
2019-02-21T05:04:00.032Z,30.87
2019-02-21T05:05:36.072Z,30.00
2019-02-21T05:07:12.208Z,32.07
2019-02-21T05:08:48.202Z,32.70
2019-02-21T05:10:24.159Z,31.30
2019-02-21T05:12:00.203Z,32.03
2019-02-21T05:13:36.190Z,31.90
2019-02-21T05:15:14.054Z,31.17
2019-02-21T05:16:50.178Z,32.53
2019-02-21T05:18:26.176Z,32.80
2019-02-21T05:20:02.061Z,34.20
2019-02-21T05:21:38.172Z,35.40
2019-02-21T05:23:14.355Z,35.23
2019-02-21T05:24:50.346Z,33.30
2019-02-21T05:26:40.066Z,35.20
2019-02-21T05:28:29.636Z,36.47
2019-02-21T05:30:09.409Z,34.87
2019-02-21T05:31:48.268Z,36.40
2019-02-21T05:33:43.953Z,35.70
2019-02-21T05:35:21.783Z,38.20
2019-02-21T05:37:18.755Z,36.27
2019-02-21T05:39:12.674Z,38.87
2019-02-21T05:40:56.151Z,37.80
2019-02-21T05:42:33.734Z,39.80
2019-02-21T05:44:18.464Z,39.50
2019-02-21T05:46:00.245Z,40.50
2019-02-21T05:47:37.935Z,41.43
2019-02-21T05:49:21.443Z,39.83
2019-02-21T05:51:01.908Z,40.77
2019-02-21T05:52:39.597Z,40.67
2019-02-21T05:54:29.054Z,40.07
2019-02-21T05:56:06.711Z,40.37
2019-02-21T05:57:44.308Z,42.87
2019-02-21T05:59:33.753Z,43.17
2019-02-21T06:01:27.394Z,42.17
2019-02-21T06:03:10.965Z,41.93
2019-02-21T06:04:52.182Z,45.30
2019-02-21T06:06:41.516Z,44.57
2019-02-21T06:08:19.204Z,43.27
2019-02-21T06:09:59.583Z,46.53
2019-02-21T06:11:39.927Z,46.97
2019-02-21T06:13:23.188Z,49.73
2019-02-21T06:15:03.915Z,51.80
2019-02-21T06:16:59.962Z,46.53
2019-02-21T06:18:49.483Z,47.77
2019-02-21T06:20:29.763Z,52.03
2019-02-21T06:22:19.496Z,54.37
2019-02-21T06:23:57.160Z,50.70
2019-02-21T06:25:37.440Z,52.13
2019-02-21T06:27:15.053Z,51.77
2019-02-21T06:28:53.643Z,49.27
2019-02-21T06:30:31.474Z,46.73
2019-02-21T06:32:14.221Z,53.10
2019-02-21T06:33:45.283Z,49.23
2019-02-21T06:35:21.195Z,48.80
2019-02-21T06:36:57.244Z,49.00
2019-02-21T06:38:33.911Z,49.10
2019-02-21T06:40:09.809Z,51.90
2019-02-21T06:41:46.194Z,48.67
2019-02-21T06:43:22.302Z,47.97
2019-02-21T06:44:59.682Z,49.20
2019-02-21T06:46:35.788Z,48.97
2019-02-21T06:48:11.827Z,50.17
2019-02-21T06:49:47.697Z,50.33
2019-02-21T06:51:23.666Z,50.03
2019-02-21T06:52:59.631Z,50.40
2019-02-21T06:54:35.662Z,51.23
2019-02-21T06:56:11.997Z,48.97
2019-02-21T06:57:48.032Z,49.20
2019-02-21T06:59:24.113Z,51.07
2019-02-21T07:01:00.035Z,46.13
2019-02-21T07:02:35.990Z,50.73
2019-02-21T07:04:12.059Z,48.27
2019-02-21T07:05:48.092Z,44.53
2019-02-21T07:07:24.163Z,45.50
2019-02-21T07:09:00.288Z,46.97
2019-02-21T07:10:36.288Z,48.90
2019-02-21T07:12:12.391Z,48.07
2019-02-21T07:13:48.318Z,47.97
2019-02-21T07:15:24.432Z,49.40
2019-02-21T07:17:00.452Z,53.20
2019-02-21T07:18:37.309Z,47.13
2019-02-21T07:20:13.437Z,46.43
2019-02-21T07:21:49.399Z,45.27
2019-02-21T07:23:25.953Z,43.97
2019-02-21T07:25:03.563Z,41.87
2019-02-21T07:26:39.602Z,41.30
2019-02-21T07:28:16.298Z,43.37
2019-02-21T07:29:52.209Z,42.03
2019-02-21T07:31:29.655Z,40.90
2019-02-21T07:33:06.157Z,42.00
2019-02-21T07:34:42.215Z,44.73
2019-02-21T07:36:18.200Z,43.43
2019-02-21T07:37:54.151Z,41.90
2019-02-21T07:39:36.184Z,44.60
2019-02-21T07:41:07.702Z,52.27
2019-02-21T07:42:43.925Z,51.37
2019-02-21T07:44:19.949Z,45.63
2019-02-21T07:45:56.063Z,40.57
2019-02-21T07:47:32.018Z,38.80
2019-02-21T07:49:08.074Z,39.13
2019-02-21T07:50:44.064Z,40.93
2019-02-21T07:52:20.171Z,36.87
2019-02-21T07:53:56.227Z,39.53
2019-02-21T07:55:32.262Z,36.00
2019-02-21T07:57:08.673Z,38.03
2019-02-21T07:58:44.923Z,40.17
2019-02-21T08:00:20.951Z,39.47
2019-02-21T08:01:56.916Z,41.37
2019-02-21T08:03:43.768Z,39.83
2019-02-21T08:05:12.244Z,41.90
2019-02-21T08:06:49.135Z,40.17
2019-02-21T08:08:25.091Z,39.80
2019-02-21T08:10:00.984Z,39.37
2019-02-21T08:11:36.886Z,37.57
2019-02-21T08:13:25.222Z,39.27
2019-02-21T08:15:01.121Z,37.93
2019-02-21T08:16:37.149Z,39.10
2019-02-21T08:18:13.356Z,37.00
2019-02-21T08:19:49.324Z,39.80
2019-02-21T08:21:25.455Z,36.60
2019-02-21T08:23:03.066Z,35.43
2019-02-21T08:24:39.263Z,36.57
2019-02-21T08:26:15.460Z,35.30
2019-02-21T08:27:51.488Z,36.53
2019-02-21T08:29:27.448Z,35.23
2019-02-21T08:31:03.553Z,37.67
2019-02-21T08:32:57.820Z,37.17
2019-02-21T08:34:35.433Z,37.10
2019-02-21T08:36:23.907Z,35.73
2019-02-21T08:37:59.929Z,35.60
2019-02-21T08:39:35.898Z,34.67
2019-02-21T08:41:14.384Z,34.33
2019-02-21T08:42:49.601Z,33.53
2019-02-21T08:44:25.601Z,36.00
2019-02-21T08:46:01.743Z,33.00
2019-02-21T08:47:37.773Z,34.67
2019-02-21T08:49:13.822Z,32.50
2019-02-21T08:50:49.945Z,32.60
2019-02-21T08:52:25.929Z,34.57
2019-02-21T08:54:01.817Z,34.23
2019-02-21T08:55:40.315Z,32.40
2019-02-21T08:57:15.530Z,32.73
2019-02-21T08:58:51.566Z,34.23
2019-02-21T09:00:27.572Z,34.17
2019-02-21T09:02:05.079Z,33.50
2019-02-21T09:03:42.636Z,29.37
2019-02-21T09:05:19.039Z,29.60
2019-02-21T09:06:55.000Z,33.07
2019-02-21T09:08:35.051Z,31.20
2019-02-21T09:10:12.143Z,31.63
2019-02-21T09:11:48.178Z,29.57
2019-02-21T09:13:24.224Z,29.30
2019-02-21T09:15:00.585Z,27.87
2019-02-21T09:16:36.672Z,28.47
2019-02-21T09:18:12.765Z,28.13
2019-02-21T09:19:48.772Z,28.63
2019-02-21T09:21:24.809Z,29.47
2019-02-21T09:23:00.719Z,31.20
2019-02-21T09:24:41.273Z,28.10
2019-02-21T09:26:14.591Z,33.07
2019-02-21T09:27:51.291Z,47.63
2019-02-21T09:29:28.659Z,34.03
2019-02-21T09:31:04.750Z,30.77
2019-02-21T09:32:42.065Z,28.57
2019-02-21T09:34:21.212Z,27.77
2019-02-21T09:35:56.854Z,27.63
2019-02-21T09:37:33.018Z,27.57
2019-02-21T09:39:09.213Z,26.93
2019-02-21T09:40:45.298Z,29.17
2019-02-21T09:42:21.231Z,26.53
2019-02-21T09:43:58.671Z,30.77
2019-02-21T09:45:34.780Z,27.57
2019-02-21T09:47:10.665Z,28.83
2019-02-21T09:48:46.619Z,28.07
2019-02-21T09:50:22.865Z,29.27
2019-02-21T09:51:59.032Z,29.33
2019-02-21T09:53:35.062Z,27.73
2019-02-21T09:55:17.068Z,26.97
2019-02-21T09:56:53.343Z,27.63
2019-02-21T09:58:29.232Z,27.63
2019-02-21T10:00:14.864Z,26.93
2019-02-21T10:01:50.927Z,27.17
2019-02-21T10:03:26.966Z,26.77
2019-02-21T10:05:05.349Z,31.10
2019-02-21T10:06:40.865Z,31.93
2019-02-21T10:08:16.922Z,30.53
2019-02-21T10:09:52.747Z,31.20
2019-02-21T10:11:28.782Z,32.67
2019-02-21T10:13:04.880Z,34.90
2019-02-21T10:14:40.909Z,31.13
2019-02-21T10:16:17.053Z,32.77
2019-02-21T10:17:53.017Z,29.83
2019-02-21T10:19:29.144Z,30.07
2019-02-21T10:21:05.243Z,29.83
2019-02-21T10:22:41.457Z,33.57
2019-02-21T10:24:18.284Z,24.40
2019-02-21T10:25:54.172Z,27.87
2019-02-21T10:27:30.215Z,25.43
2019-02-21T10:29:06.145Z,28.23
2019-02-21T10:30:42.178Z,25.27
2019-02-21T10:32:18.194Z,24.47
2019-02-21T10:33:54.077Z,25.50
2019-02-21T10:35:30.116Z,23.97
2019-02-21T10:37:06.218Z,24.73
2019-02-21T10:38:42.224Z,24.87
2019-02-21T10:40:18.833Z,24.57
2019-02-21T10:41:55.001Z,24.73
2019-02-21T10:43:30.963Z,21.37
2019-02-21T10:45:19.482Z,22.40
2019-02-21T10:46:55.450Z,22.80
2019-02-21T10:48:31.450Z,22.33
2019-02-21T10:50:14.603Z,21.90
2019-02-21T10:51:50.683Z,22.63
2019-02-21T10:53:26.638Z,22.97
2019-02-21T10:55:02.718Z,22.67
2019-02-21T10:56:38.820Z,21.20
2019-02-21T10:58:14.782Z,21.60
2019-02-21T10:59:50.789Z,21.73
2019-02-21T11:01:26.956Z,21.10
2019-02-21T11:03:03.117Z,20.83
2019-02-21T11:04:42.011Z,21.67
2019-02-21T11:06:16.969Z,20.50
2019-02-21T11:07:53.108Z,20.87
2019-02-21T11:09:30.549Z,19.63
2019-02-21T11:11:09.645Z,21.67
2019-02-21T11:12:45.604Z,19.07
2019-02-21T11:14:21.679Z,19.13
2019-02-21T11:15:57.825Z,18.13
2019-02-21T11:17:33.954Z,20.40
2019-02-21T11:19:10.084Z,18.20
2019-02-21T11:20:47.451Z,18.80
2019-02-21T11:22:23.649Z,18.93
2019-02-21T11:23:59.804Z,18.67
2019-02-21T11:25:35.965Z,18.17
2019-02-21T11:27:12.042Z,17.67
2019-02-21T11:28:48.110Z,17.77
2019-02-21T11:30:24.320Z,17.87
2019-02-21T11:32:00.468Z,19.10
2019-02-21T11:33:36.418Z,18.57
2019-02-21T11:35:12.723Z,18.97
2019-02-21T11:36:50.093Z,19.77
2019-02-21T11:38:26.053Z,19.60
2019-02-21T11:40:02.085Z,21.83
2019-02-21T11:41:38.079Z,21.13
2019-02-21T11:43:14.147Z,20.40
2019-02-21T11:44:50.107Z,21.10
2019-02-21T11:46:26.133Z,21.87
2019-02-21T11:48:02.169Z,21.37
2019-02-21T11:49:38.074Z,20.73
2019-02-21T11:51:14.113Z,22.87
2019-02-21T11:52:50.265Z,21.63
2019-02-21T11:54:27.375Z,21.87
2019-02-21T11:56:03.510Z,23.07
2019-02-21T11:57:39.619Z,23.80
2019-02-21T11:59:16.203Z,23.67
2019-02-21T12:00:52.475Z,23.67
2019-02-21T12:02:38.380Z,24.20
2019-02-21T12:04:06.269Z,24.43
2019-02-21T12:05:42.309Z,23.03
2019-02-21T12:07:18.530Z,25.13
2019-02-21T12:08:54.426Z,25.13
2019-02-21T12:10:30.540Z,25.53
2019-02-21T12:12:06.585Z,27.33
2019-02-21T12:13:42.468Z,28.40
2019-02-21T12:15:18.873Z,27.20
2019-02-21T12:16:54.910Z,28.33
2019-02-21T12:18:31.807Z,29.93
2019-02-21T12:20:11.686Z,30.50
2019-02-21T12:21:58.388Z,29.97
2019-02-21T12:23:25.462Z,30.03
2019-02-21T12:25:01.461Z,29.97
2019-02-21T12:26:37.518Z,31.40
2019-02-21T12:28:13.555Z,32.23
2019-02-21T12:29:49.515Z,31.83
2019-02-21T12:31:25.550Z,31.13
2019-02-21T12:33:01.535Z,31.30
2019-02-21T12:34:37.600Z,30.83
2019-02-21T12:36:13.589Z,32.10
2019-02-21T12:37:49.633Z,31.43
2019-02-21T12:39:25.778Z,30.83
2019-02-21T12:41:02.425Z,32.27
2019-02-21T12:42:38.500Z,32.87
2019-02-21T12:44:14.526Z,38.40
2019-02-21T12:45:52.642Z,34.80
2019-02-21T12:47:30.044Z,34.67
2019-02-21T12:49:06.171Z,36.83
2019-02-21T12:50:44.579Z,36.83
2019-02-21T12:52:20.079Z,35.17
2019-02-21T12:53:56.050Z,34.60
2019-02-21T12:55:32.130Z,36.63
2019-02-21T12:57:08.156Z,40.07
2019-02-21T12:58:45.306Z,40.37
2019-02-21T13:00:24.608Z,54.57
2019-02-21T13:02:00.572Z,53.50
2019-02-21T13:03:36.644Z,44.10
2019-02-21T13:05:12.681Z,44.67
2019-02-21T13:06:48.707Z,44.00
2019-02-21T13:08:24.705Z,39.07
2019-02-21T13:10:00.725Z,40.23
2019-02-21T13:11:36.660Z,39.33
2019-02-21T13:13:12.555Z,39.67
2019-02-21T13:14:48.447Z,39.23
2019-02-21T13:16:24.563Z,40.47
2019-02-21T13:18:02.525Z,38.50
2019-02-21T13:19:38.206Z,46.23
2019-02-21T13:21:14.165Z,45.37
2019-02-21T13:22:49.979Z,45.13
2019-02-21T13:24:27.053Z,40.13
2019-02-21T13:26:03.186Z,43.00
2019-02-21T13:27:39.380Z,41.10
2019-02-21T13:29:28.035Z,43.23
2019-02-21T13:31:05.267Z,43.27
2019-02-21T13:32:41.238Z,44.07
2019-02-21T13:34:17.271Z,42.80
2019-02-21T13:35:53.343Z,42.47
2019-02-21T13:37:29.427Z,43.67
2019-02-21T13:39:07.861Z,44.07
2019-02-21T13:40:43.842Z,43.70
2019-02-21T13:42:19.917Z,47.80
2019-02-21T13:43:56.116Z,44.50
2019-02-21T13:45:33.632Z,40.53
2019-02-21T13:47:11.123Z,43.80
2019-02-21T13:48:47.184Z,44.67
2019-02-21T13:50:23.949Z,38.53
2019-02-21T13:52:00.189Z,49.33
2019-02-21T13:53:37.691Z,48.87
2019-02-21T13:55:14.033Z,50.40
2019-02-21T13:56:50.158Z,47.90
2019-02-21T13:58:26.290Z,43.67
2019-02-21T14:00:02.506Z,40.63
2019-02-21T14:01:38.741Z,42.67
2019-02-21T14:03:14.850Z,42.47
2019-02-21T14:04:50.901Z,43.03
2019-02-21T14:06:26.954Z,43.50
2019-02-21T14:08:03.081Z,45.80
2019-02-21T14:09:39.101Z,48.53
2019-02-21T14:11:15.240Z,44.70
2019-02-21T14:12:51.238Z,46.40
2019-02-21T14:14:27.267Z,42.23
2019-02-21T14:16:03.478Z,38.27
2019-02-21T14:17:39.517Z,32.13
2019-02-21T14:19:15.565Z,31.37
2019-02-21T14:20:51.737Z,27.20
2019-02-21T14:22:27.903Z,34.07
2019-02-21T14:24:05.042Z,32.27
2019-02-21T14:25:41.393Z,38.90
2019-02-21T14:27:17.503Z,35.20
2019-02-21T14:28:53.603Z,42.80
2019-02-21T14:30:29.668Z,33.27
2019-02-21T14:32:05.723Z,30.50
2019-02-21T14:33:41.868Z,32.20
2019-02-21T14:35:17.969Z,32.00
2019-02-21T14:36:53.862Z,34.63
2019-02-21T14:38:29.836Z,36.50
2019-02-21T14:40:09.213Z,36.57
2019-02-21T14:41:45.420Z,38.00
2019-02-21T14:43:21.453Z,43.00
2019-02-21T14:44:57.639Z,47.17
2019-02-21T14:46:33.660Z,45.90
2019-02-21T14:48:09.719Z,43.27
2019-02-21T14:49:45.754Z,49.67
2019-02-21T14:51:21.899Z,49.57
2019-02-21T14:52:57.998Z,49.40
2019-02-21T14:54:34.046Z,43.20
2019-02-21T14:56:10.187Z,40.60
2019-02-21T14:57:46.317Z,40.57
2019-02-21T14:59:22.535Z,40.77
2019-02-21T15:00:58.740Z,43.70
2019-02-21T15:02:34.768Z,39.77
2019-02-21T15:04:12.319Z,41.43
2019-02-21T15:05:48.346Z,38.30
2019-02-21T15:07:26.275Z,40.67
2019-02-21T15:09:02.076Z,39.90
2019-02-21T15:10:38.116Z,41.00
2019-02-21T15:12:14.432Z,41.43
2019-02-21T15:13:51.853Z,42.17
2019-02-21T15:15:28.587Z,38.67
2019-02-21T15:17:04.536Z,42.27
2019-02-21T15:18:42.092Z,42.83
2019-02-21T15:20:18.870Z,46.00
2019-02-21T15:21:54.844Z,44.10
2019-02-21T15:23:30.963Z,46.57
2019-02-21T15:25:09.403Z,45.60
2019-02-21T15:26:47.163Z,44.80
2019-02-21T15:28:23.271Z,47.87
2019-02-21T15:29:59.563Z,45.00
2019-02-21T15:31:35.859Z,47.40
2019-02-21T15:33:12.978Z,45.47
2019-02-21T15:34:49.127Z,42.73
2019-02-21T15:36:25.270Z,41.00
2019-02-21T15:38:01.223Z,44.80
2019-02-21T15:39:37.455Z,40.63
2019-02-21T15:41:13.460Z,44.23
2019-02-21T15:42:49.564Z,46.60
2019-02-21T15:44:26.927Z,44.10
2019-02-21T15:46:03.076Z,45.73
2019-02-21T15:47:39.769Z,45.07
2019-02-21T15:49:15.879Z,45.07
2019-02-21T15:50:51.910Z,43.73
2019-02-21T15:52:28.259Z,41.77
2019-02-21T15:54:04.935Z,45.43
2019-02-21T15:55:40.927Z,46.27
2019-02-21T15:57:16.961Z,44.03
2019-02-21T15:58:52.980Z,44.73
2019-02-21T16:00:29.118Z,44.50
2019-02-21T16:02:05.493Z,40.17
2019-02-21T16:03:42.658Z,35.87
2019-02-21T16:05:19.012Z,34.83
2019-02-21T16:06:55.447Z,35.37
2019-02-21T16:08:32.378Z,36.23
2019-02-21T16:10:36.549Z,37.93
2019-02-21T16:12:13.148Z,40.37
2019-02-21T16:13:59.446Z,48.10
2019-02-21T16:15:28.333Z,72.80
2019-02-21T16:17:04.296Z,97.93
2019-02-21T16:18:40.272Z,70.00
2019-02-21T16:20:20.916Z,76.90
2019-02-21T16:21:56.847Z,52.30
2019-02-21T16:23:32.893Z,51.87
2019-02-21T16:25:21.983Z,83.83
2019-02-21T16:26:58.023Z,39.90
2019-02-21T16:28:34.068Z,40.07
2019-02-21T16:30:12.683Z,84.20
2019-02-21T16:31:49.071Z,109.67
2019-02-21T16:33:25.214Z,52.77
2019-02-21T16:35:01.988Z,58.60
2019-02-21T16:36:38.029Z,99.60
2019-02-21T16:38:14.170Z,77.10
2019-02-21T16:39:51.664Z,52.27
2019-02-21T16:41:36.085Z,46.50
2019-02-21T16:43:05.462Z,39.33
2019-02-21T16:44:41.361Z,41.50
2019-02-21T16:46:17.412Z,45.90
2019-02-21T16:47:53.446Z,42.17
2019-02-21T16:49:29.415Z,46.60
2019-02-21T16:51:05.555Z,40.20
2019-02-21T16:52:41.803Z,45.03
2019-02-21T16:54:17.773Z,45.37
2019-02-21T16:55:56.055Z,47.87
2019-02-21T16:57:32.088Z,42.77
2019-02-21T16:59:08.086Z,40.93
2019-02-21T17:00:53.238Z,43.17
2019-02-21T17:02:22.088Z,41.43
2019-02-21T17:03:58.107Z,42.67
2019-02-21T17:05:34.229Z,43.57
2019-02-21T17:07:15.973Z,47.80
2019-02-21T17:08:48.088Z,45.80
2019-02-21T17:10:24.332Z,49.87
2019-02-21T17:12:00.363Z,48.97
2019-02-21T17:13:36.355Z,46.57
2019-02-21T17:15:18.077Z,47.07
2019-02-21T17:16:54.190Z,46.27
2019-02-21T17:18:30.353Z,49.87
2019-02-21T17:20:10.699Z,47.93
2019-02-21T17:21:46.738Z,46.03
2019-02-21T17:23:23.235Z,45.33
2019-02-21T17:24:59.335Z,44.70
2019-02-21T17:26:35.460Z,44.77
2019-02-21T17:28:11.588Z,47.00
2019-02-21T17:29:47.573Z,47.47
2019-02-21T17:31:23.591Z,49.27
2019-02-21T17:32:59.688Z,50.77
2019-02-21T17:34:35.825Z,52.23
2019-02-21T17:36:11.870Z,50.17
2019-02-21T17:37:48.039Z,49.20
2019-02-21T17:39:24.154Z,52.87
2019-02-21T17:41:00.125Z,52.53
2019-02-21T17:42:36.121Z,64.90
2019-02-21T17:44:12.415Z,66.53
2019-02-21T17:45:48.390Z,59.90
2019-02-21T17:47:24.606Z,60.17
2019-02-21T17:49:00.651Z,51.13
2019-02-21T17:50:38.395Z,50.70
2019-02-21T17:52:14.510Z,68.20
2019-02-21T17:53:50.549Z,48.70
2019-02-21T17:55:26.620Z,47.43
2019-02-21T17:57:02.514Z,44.50
2019-02-21T17:58:38.638Z,37.57
2019-02-21T18:00:36.235Z,37.20
2019-02-21T18:02:12.341Z,34.67
2019-02-21T18:03:48.467Z,27.23
2019-02-21T18:05:24.595Z,28.53
2019-02-21T18:07:00.640Z,28.23
2019-02-21T18:08:36.838Z,27.37
2019-02-21T18:10:19.763Z,25.50
2019-02-21T18:11:55.978Z,24.07
2019-02-21T18:13:31.948Z,22.60
2019-02-21T18:15:11.590Z,20.60
2019-02-21T18:16:47.663Z,20.50
2019-02-21T18:18:23.610Z,23.73
2019-02-21T18:19:59.710Z,30.43
2019-02-21T18:21:35.850Z,49.73
2019-02-21T18:23:12.567Z,43.13
2019-02-21T18:24:50.108Z,39.03
2019-02-21T18:26:26.214Z,30.87
2019-02-21T18:28:02.435Z,31.30
2019-02-21T18:29:38.476Z,28.67
2019-02-21T18:31:14.570Z,29.90
2019-02-21T18:32:50.755Z,33.57
2019-02-21T18:34:26.765Z,33.53
2019-02-21T18:36:02.834Z,32.93
2019-02-21T18:37:46.990Z,31.70
2019-02-21T18:39:17.757Z,28.13
2019-02-21T18:40:54.652Z,30.03
2019-02-21T18:42:31.770Z,29.60
2019-02-21T18:44:07.909Z,30.20
2019-02-21T18:45:44.081Z,26.63
2019-02-21T18:47:21.660Z,28.13
2019-02-21T18:48:57.616Z,27.60
2019-02-21T18:50:38.071Z,25.70
2019-02-21T18:52:11.553Z,25.50
2019-02-21T18:53:48.974Z,21.47
2019-02-21T18:55:25.163Z,24.20
2019-02-21T18:57:01.400Z,23.63
2019-02-21T18:58:37.433Z,23.03
2019-02-21T19:00:23.951Z,21.67
2019-02-21T19:01:59.960Z,23.63
2019-02-21T19:03:35.978Z,29.15
2019-02-21T19:05:12.090Z,29.77
2019-02-21T19:06:48.156Z,34.07
2019-02-21T19:08:24.340Z,35.70
2019-02-21T19:10:00.587Z,35.00
2019-02-21T19:11:38.085Z,33.77
2019-02-21T19:13:15.603Z,36.10
2019-02-21T19:14:51.625Z,33.93
2019-02-21T19:16:27.859Z,33.50
2019-02-21T19:18:03.800Z,34.57
2019-02-21T19:19:39.926Z,34.50
2019-02-21T19:21:16.207Z,37.50
2019-02-21T19:22:52.799Z,34.03
2019-02-21T19:24:28.940Z,34.60
2019-02-21T19:26:05.290Z,33.20
2019-02-21T19:27:41.440Z,33.20
2019-02-21T19:29:17.553Z,32.03
2019-02-21T19:31:03.787Z,31.70
2019-02-21T19:32:39.988Z,33.33
2019-02-21T19:34:16.191Z,37.23
2019-02-21T19:35:52.406Z,32.93
2019-02-21T19:37:29.515Z,34.97
2019-02-21T19:39:06.605Z,33.47
2019-02-21T19:40:42.705Z,32.47
2019-02-21T19:42:18.867Z,37.20
2019-02-21T19:43:54.973Z,37.37
2019-02-21T19:45:31.072Z,39.53
2019-02-21T19:47:07.033Z,39.13
2019-02-21T19:48:43.062Z,36.03
2019-02-21T19:50:19.287Z,39.20
2019-02-21T19:51:56.753Z,37.57
2019-02-21T19:53:34.216Z,38.27
2019-02-21T19:55:11.802Z,40.27
2019-02-21T19:56:49.235Z,38.57
2019-02-21T19:58:25.451Z,40.23
2019-02-21T20:00:01.422Z,41.33
2019-02-21T20:01:37.549Z,37.20
2019-02-21T20:03:13.748Z,38.27
2019-02-21T20:04:49.982Z,51.03
2019-02-21T20:06:26.180Z,45.73
2019-02-21T20:08:08.698Z,44.27
2019-02-21T20:09:41.591Z,38.47
2019-02-21T20:11:17.754Z,43.77
2019-02-21T20:12:54.941Z,42.90
2019-02-21T20:14:34.030Z,41.70
2019-02-21T20:16:10.154Z,39.47
2019-02-21T20:17:46.355Z,41.03
2019-02-21T20:19:22.413Z,38.17
2019-02-21T20:20:58.519Z,38.73
2019-02-21T20:22:34.749Z,38.73
2019-02-21T20:24:10.890Z,40.73
2019-02-21T20:25:48.415Z,42.90
2019-02-21T20:27:24.378Z,41.33
2019-02-21T20:29:00.651Z,38.30
2019-02-21T20:30:36.906Z,45.10
2019-02-21T20:32:13.683Z,44.03
2019-02-21T20:33:49.831Z,44.83
2019-02-21T20:35:26.027Z,42.77
2019-02-21T20:37:02.262Z,44.43
2019-02-21T20:38:39.799Z,47.67
2019-02-21T20:40:16.076Z,45.50
2019-02-21T20:41:52.319Z,41.37
2019-02-21T20:43:28.630Z,43.73
2019-02-21T20:45:07.759Z,43.90
2019-02-21T20:46:44.098Z,44.10
2019-02-21T20:48:20.376Z,45.23
2019-02-21T20:49:56.708Z,44.17